Südanflug-Wetter

Südanflüge sind sowohl am Euroairport Basel-Mulhouse-Freiburg als auch am Flughafen Unique Zürich ein Thema für die Anwohner. In Basel hängen Südanflüge von den Windverhältnissen ab. Für den Euroairport Basel-Mulhouse-Freiburg bereitet MeteoNews deshalb aktuelle Winddaten auf, die direkt auf der Homepage des Flughafens eingebunden werden. Angaben zum Flughafen Zürich finden Sie hier.

In Zürich sind Südanflüge auf die Piste 34 möglich, wenn die horizontale Sichtweite mindestens 750 m beträgt und die Wolkenuntergrenze im Anflugsektor nicht tiefer als 300 Fuss (knapp 100 m) liegt (diese Werte gelten seit dem 1. November 2004).

Prognose für Südanflüge

Am Dienstag sind Südanflüge möglich.
(Prognose ohne Gewähr. Die Vorhersage wird mehrmals täglich aktualisiert. Verantwortlicher Meteorologe: Roger Perret, 27.06.2022 15:35)

Analyse der letzten METAR-Messungen

Unser Tool wertet die letzten 20 offiziellen Wettermeldungen (METAR) des Flughafens Zürich aus und entscheidet aufgrund der beiden Werte für Sichtweite und Ceiling (Hauptwolkenuntergrenze), ob Südanflüge nach obiger Definition möglich wären. Allerdings repräsentiert der Wert für die Wolkenuntergrenze in der METAR-Meldung nicht die Bewölkung im Anflugsektor sondern generell um den Flughafen. Da über die Bewölkung im Anflugsektor kurzfristig aufgrund von Beobachtungen des Towers und von Piloten entschieden wird, kann die Angabe unseres Tools in gewissen Fällen von den realen Entscheiden der Flugsicherung abweichen.

Südanflüge Datum Uhrzeit Sichtweite Ceiling Vollständige METAR-Meldung
möglich 2022-06-28 01:20:00 > 10 km LSZH 272320Z AUTO 05001KT 9999 2300N NSC 14/14 Q1023 TEMPO 4000 BCFG
möglich 2022-06-28 00:50:00 > 10 km LSZH 272250Z AUTO 14002KT 9999 FEW001 14/14 Q1023 NOSIG
möglich 2022-06-28 00:20:00 > 10 km LSZH 272220Z AUTO VRB03KT 9999 4600N NCD 14/14 Q1023 NOSIG
möglich 2022-06-27 23:50:00 > 10 km LSZH 272150Z AUTO 09002KT 9999 FEW075 15/14 Q1023 NOSIG
möglich 2022-06-27 23:20:00 > 10 km 2130 m LSZH 272120Z VRB01KT 9999 FEW025 SCT040 BKN070 16/15 Q1023 NOSIG
möglich 2022-06-27 22:50:00 > 10 km LSZH 272050Z VRB01KT 9999 FEW025 SCT065 16/14 Q1023 NOSIG
möglich 2022-06-27 22:20:00 > 10 km LSZH 272020Z 13003KT 110V170 9999 FEW025 16/14 Q1022 NOSIG
möglich 2022-06-27 21:50:00 > 10 km LSZH 271950Z 15006KT 9999 FEW025 SCT040 16/14 Q1022 NOSIG
möglich 2022-06-27 21:20:00 8000 m LSZH 271920Z 09005KT 060V140 8000 -SHRA FEW025 SCT050 16/14 Q1021 RESHRA TEMPO NSW
möglich 2022-06-27 20:50:00 6000 m 2290 m LSZH 271850Z 19003KT 110V220 6000 -SHRA FEW025 SCT045 BKN075 16/14 Q1023 TEMPO SHRA
möglich 2022-06-27 20:20:00 > 10 km 2130 m LSZH 271820Z 16006KT 9999 -SHRA FEW025 FEW045TCU BKN070 17/14 Q1022 TEMPO SHRA
möglich 2022-06-27 19:50:00 > 10 km 2290 m LSZH 271750Z 18004KT 9999 -SHRA FEW022 FEW030TCU BKN075 17/15 Q1022 TEMPO NSW
möglich 2022-06-27 19:20:00 7000 m 1680 m LSZH 271720Z 25005KT 220V290 7000 VCTS -SHRA FEW017 FEW040CB BKN055 17/14 Q1021 TEMPO 4500 SHRA
möglich 2022-06-27 18:50:00 8000 m 1980 m LSZH 271650Z 31007KT 8000 VCTS -SHRA FEW020 SCT045CB BKN065 18/15 Q1020 TEMPO 4000 TSRA
möglich 2022-06-27 18:20:00 7000 m 1980 m LSZH 271620Z 27006KT 230V310 7000 VCTS -SHRA FEW018 FEW040CB BKN065 18/15 Q1020 RETSRA TEMPO SHRA
möglich 2022-06-27 17:50:00 9000 m 1520 m LSZH 271550Z 29011KT 9000 VCTS -SHRA FEW022 SCT040CB BKN050 20/14 Q1020 TEMPO 3500 TSRA
möglich 2022-06-27 17:20:00 > 10 km 1520 m LSZH 271520Z 27006KT 9999 SCT040CB BKN050 22/12 Q1019 TEMPO 3500 TSRA
möglich 2022-06-27 16:50:00 > 10 km 1520 m LSZH 271450Z 32004KT 280V010 9999 FEW040TCU BKN050 22/12 Q1019 TEMPO 4000 TSRA
möglich 2022-06-27 16:20:00 > 10 km 1520 m LSZH 271420Z 31008KT 270V330 9999 FEW030TCU BKN050 22/13 Q1019 TEMPO SHRA
möglich 2022-06-27 15:50:00 > 10 km 1520 m LSZH 271350Z 31011KT 9999 FEW035 BKN050 23/13 Q1019 NOSIG